Time;durP1;ratioP1;P1;durP2;ratioP2;P2;SDS_P1;SDS_P2;PMS_P1;PMS_P2;Temp;Humidity;BMP_temperature;BMP_pressure;BME280_temperature;BME280_humidity;BME280_pressure;Samples;Min_cycle;Max_cycle;Signal;HPM_P1;HPM_P2
2023/12/10 00:01:28;;;;;;;4.40;0.88;;;10.50;99.90;;;;;;4974453;23;20205;-95
2023/12/10 00:03:32;;;;;;;11.77;1.75;;;10.60;99.90;;;;;;4998395;23;20159;-96
2023/12/10 00:05:33;;;;;;;14.80;2.30;;;10.60;99.90;;;;;;4973856;23;20211;-94
2023/12/10 00:07:34;;;;;;;16.70;2.08;;;10.60;99.90;;;;;;4997710;23;20286;-95
2023/12/10 00:09:35;;;;;;;13.32;1.58;;;10.60;99.90;;;;;;4974324;23;20161;-95
2023/12/10 00:11:38;;;;;;;16.08;2.45;;;10.60;99.90;;;;;;4973703;23;20232;-96
2023/12/10 00:13:39;;;;;;;6.45;1.58;;;10.60;99.90;;;;;;4974362;23;20160;-95
2023/12/10 00:15:40;;;;;;;9.05;1.05;;;10.50;99.90;;;;;;4997075;23;20175;-94
2023/12/10 00:17:41;;;;;;;9.85;1.50;;;10.60;99.90;;;;;;4974842;23;20160;-96
2023/12/10 00:19:42;;;;;;;1.90;0.55;;;10.60;99.90;;;;;;4975090;23;20153;-96
2023/12/10 00:21:43;;;;;;;5.50;1.25;;;10.60;99.90;;;;;;4999317;23;20538;-96
2023/12/10 00:23:44;;;;;;;8.38;1.02;;;10.60;99.90;;;;;;4975397;23;20161;-96
2023/12/10 00:25:45;;;;;;;6.05;1.10;;;10.60;99.90;;;;;;4998777;23;20695;-96
2023/12/10 00:27:46;;;;;;;13.75;1.98;;;10.60;99.90;;;;;;4998725;23;20159;-95
2023/12/10 00:29:47;;;;;;;5.05;1.60;;;10.60;99.90;;;;;;4975475;23;20236;-95
2023/12/10 00:31:49;;;;;;;13.68;1.23;;;10.60;99.90;;;;;;4999516;23;20639;-95
2023/12/10 00:33:50;;;;;;;8.63;0.90;;;10.60;99.90;;;;;;4975895;23;20231;-95
2023/12/10 00:35:51;;;;;;;6.22;1.05;;;10.60;99.90;;;;;;4975996;23;20187;-94
2023/12/10 00:37:52;;;;;;;5.22;0.70;;;10.60;99.90;;;;;;4976594;23;20191;-96
2023/12/10 00:39:53;;;;;;;14.75;1.50;;;10.60;99.90;;;;;;4975633;23;20160;-95
2023/12/10 00:41:53;;;;;;;11.60;0.82;;;10.50;99.90;;;;;;4976227;23;20191;-94
2023/12/10 00:43:54;;;;;;;9.65;1.20;;;10.50;99.90;;;;;;5001303;23;20159;-95
2023/12/10 00:45:56;;;;;;;7.82;0.55;;;10.50;99.90;;;;;;4975783;23;20163;-95
2023/12/10 00:47:57;;;;;;;8.98;1.40;;;10.50;99.90;;;;;;4975600;23;20219;-96
2023/12/10 00:49:58;;;;;;;1.42;0.60;;;10.50;99.90;;;;;;4976179;23;20148;-94
2023/12/10 00:51:59;;;;;;;7.90;1.50;;;10.40;99.90;;;;;;4999154;23;20192;-94
2023/12/10 00:54:01;;;;;;;10.90;1.48;;;10.40;99.90;;;;;;4975061;23;20252;-95
2023/12/10 00:56:02;;;;;;;9.30;1.30;;;10.60;99.90;;;;;;4998477;23;20156;-95
2023/12/10 00:58:03;;;;;;;6.70;0.82;;;10.50;99.90;;;;;;4975451;23;20160;-94
2023/12/10 01:00:07;;;;;;;4.95;0.70;;;10.50;99.90;;;;;;4976545;23;20216;-96
2023/12/10 01:02:08;;;;;;;3.30;0.95;;;10.40;99.90;;;;;;4975826;23;20191;-94
2023/12/10 01:04:09;;;;;;;8.43;1.40;;;10.40;99.90;;;;;;4975035;23;20175;-96
2023/12/10 01:06:10;;;;;;;5.32;1.05;;;10.50;99.90;;;;;;4998288;23;20158;-94
2023/12/10 01:08:12;;;;;;;2.38;1.10;;;10.40;99.90;;;;;;4974865;23;20157;-96
2023/12/10 01:10:12;;;;;;;17.60;1.80;;;10.50;99.90;;;;;;4974970;23;20163;-95
2023/12/10 01:12:13;;;;;;;5.95;1.13;;;10.40;99.90;;;;;;4975944;23;20682;-94
2023/12/10 01:14:14;;;;;;;4.60;0.70;;;10.50;99.90;;;;;;4976906;23;20634;-94
2023/12/10 01:16:16;;;;;;;8.85;1.27;;;10.50;99.90;;;;;;4999362;23;20164;-95
2023/12/10 01:18:17;;;;;;;7.88;1.50;;;10.60;99.90;;;;;;4975442;23;20473;-95
2023/12/10 01:20:20;;;;;;;13.38;1.25;;;10.50;99.90;;;;;;5022915;23;20628;-94
2023/12/10 01:22:21;;;;;;;1.05;0.70;;;10.60;99.90;;;;;;4998718;23;20155;-94
2023/12/10 01:24:24;;;;;;;11.63;1.73;;;10.50;99.90;;;;;;4998269;23;20236;-94
2023/12/10 01:26:25;;;;;;;12.45;1.00;;;10.50;99.90;;;;;;4974547;23;20179;-94
2023/12/10 01:28:26;;;;;;;9.70;1.08;;;10.50;99.90;;;;;;4974752;23;20152;-96
2023/12/10 01:30:27;;;;;;;8.77;1.10;;;10.50;99.90;;;;;;4974531;23;20245;-96
2023/12/10 01:32:28;;;;;;;7.85;1.30;;;10.50;99.90;;;;;;4997737;23;20559;-95
2023/12/10 01:34:29;;;;;;;8.20;1.00;;;10.60;99.90;;;;;;4974881;23;20179;-96
2023/12/10 01:36:30;;;;;;;11.32;1.95;;;10.60;99.90;;;;;;4974873;23;20164;-96
2023/12/10 01:38:30;;;;;;;10.88;1.00;;;10.50;99.90;;;;;;4974485;23;20204;-95
2023/12/10 01:40:32;;;;;;;21.30;1.83;;;10.50;99.90;;;;;;4998401;23;20160;-96
2023/12/10 01:42:33;;;;;;;3.83;1.23;;;10.50;99.90;;;;;;4974886;23;20184;-96
2023/12/10 01:44:34;;;;;;;9.70;1.25;;;10.50;99.90;;;;;;4974905;23;20180;-96
2023/12/10 01:46:35;;;;;;;8.82;1.33;;;10.40;99.90;;;;;;4974697;23;20157;-96
2023/12/10 01:48:41;;;;;;;7.40;0.85;;;10.50;99.90;;;;;;4998743;23;20239;-95
2023/12/10 01:50:44;;;;;;;4.70;1.20;;;10.50;99.90;;;;;;4974909;23;20195;-94
2023/12/10 01:52:47;;;;;;;0.90;0.47;;;10.40;99.90;;;;;;4974889;23;20515;-94
2023/12/10 01:54:48;;;;;;;10.48;1.98;;;10.40;99.90;;;;;;4975280;23;20619;-95
2023/12/10 01:56:50;;;;;;;14.63;3.13;;;10.40;99.90;;;;;;4998813;23;20734;-95
2023/12/10 01:58:51;;;;;;;16.20;2.58;;;10.40;99.90;;;;;;4998327;23;20571;-96
2023/12/10 02:00:52;;;;;;;11.35;1.08;;;10.50;99.90;;;;;;4976007;23;20629;-95
2023/12/10 02:02:54;;;;;;;9.77;1.52;;;10.50;99.90;;;;;;4952178;24;20165;-95
2023/12/10 02:04:56;;;;;;;13.40;2.05;;;10.50;99.90;;;;;;5000310;23;20239;-94
2023/12/10 02:06:57;;;;;;;4.97;0.85;;;10.50;99.90;;;;;;4975523;23;20220;-96
2023/12/10 02:08:58;;;;;;;8.10;1.38;;;10.40;99.90;;;;;;4975063;23;20480;-95
2023/12/10 02:10:59;;;;;;;13.02;2.15;;;10.40;99.90;;;;;;4975111;23;20156;-95
2023/12/10 02:13:03;;;;;;;3.90;0.73;;;10.50;99.90;;;;;;4997804;23;20192;-95
2023/12/10 02:15:20;;;;;;;7.53;1.88;;;10.50;99.90;;;;;;4997905;23;20175;-95
2023/12/10 02:17:21;;;;;;;13.57;2.20;;;10.50;99.90;;;;;;4975062;23;20212;-95
2023/12/10 02:19:22;;;;;;;3.90;0.52;;;10.50;99.90;;;;;;4974983;23;20550;-95
2023/12/10 02:21:25;;;;;;;14.85;1.95;;;10.30;99.90;;;;;;4975429;23;20235;-94
2023/12/10 02:23:33;;;;;;;13.98;2.53;;;10.40;99.90;;;;;;4998136;23;20220;-94
2023/12/10 02:25:35;;;;;;;13.02;1.88;;;10.40;99.90;;;;;;4974907;23;20262;-95
2023/12/10 02:27:36;;;;;;;6.95;1.63;;;10.40;99.90;;;;;;4975832;23;20157;-96
2023/12/10 02:29:37;;;;;;;7.88;1.30;;;10.50;99.90;;;;;;4974320;23;20193;-96
2023/12/10 02:31:38;;;;;;;3.67;1.30;;;10.40;99.90;;;;;;4974888;23;20192;-94
2023/12/10 02:33:39;;;;;;;9.95;2.20;;;10.40;99.90;;;;;;4974614;23;20159;-93
2023/12/10 02:35:40;;;;;;;16.70;1.83;;;10.40;99.90;;;;;;4976093;23;20187;-96
2023/12/10 02:37:41;;;;;;;7.80;1.98;;;10.40;99.90;;;;;;4997829;23;20488;-95
2023/12/10 02:39:41;;;;;;;16.23;1.38;;;10.50;99.90;;;;;;4997768;23;20198;-96
2023/12/10 02:41:42;;;;;;;4.40;0.73;;;10.50;99.90;;;;;;4998199;23;20255;-94
2023/12/10 02:43:43;;;;;;;7.60;2.35;;;10.40;99.90;;;;;;4998056;23;20535;-95
2023/12/10 02:45:44;;;;;;;13.98;1.65;;;10.50;99.90;;;;;;4974031;23;20669;-95
2023/12/10 02:47:45;;;;;;;13.82;1.65;;;10.40;99.90;;;;;;4974554;23;20221;-95
2023/12/10 02:49:46;;;;;;;4.90;1.02;;;10.40;99.90;;;;;;4977031;23;20156;-94
2023/12/10 02:51:46;;;;;;;11.48;1.40;;;10.40;99.90;;;;;;4999239;23;20542;-94
2023/12/10 02:53:47;;;;;;;17.95;2.25;;;10.30;99.90;;;;;;4974855;23;20251;-94
2023/12/10 02:55:48;;;;;;;15.82;2.58;;;10.40;99.90;;;;;;4999529;23;20195;-94
2023/12/10 02:57:49;;;;;;;10.02;1.70;;;10.40;99.90;;;;;;4975950;23;20169;-94
2023/12/10 02:59:50;;;;;;;12.50;1.55;;;10.40;99.90;;;;;;4977542;23;20157;-96
2023/12/10 03:01:51;;;;;;;9.93;1.55;;;10.40;99.90;;;;;;4978025;23;20156;-96
2023/12/10 03:03:52;;;;;;;7.43;0.80;;;10.30;99.90;;;;;;4979481;23;20164;-94
2023/12/10 03:05:53;;;;;;;10.32;1.38;;;10.40;99.90;;;;;;4976324;23;20208;-94
2023/12/10 03:07:53;;;;;;;10.02;1.55;;;10.50;99.90;;;;;;4976116;23;20167;-93
2023/12/10 03:09:54;;;;;;;4.70;1.50;;;10.30;99.90;;;;;;4975131;23;20264;-95
2023/12/10 03:11:55;;;;;;;14.55;1.10;;;10.40;99.90;;;;;;4999365;23;20187;-96
2023/12/10 03:13:56;;;;;;;5.05;1.02;;;10.30;99.90;;;;;;4978316;23;20575;-96
2023/12/10 03:15:57;;;;;;;5.60;0.85;;;10.40;99.90;;;;;;5002656;23;20649;-94
2023/12/10 03:17:59;;;;;;;11.10;0.85;;;10.40;99.90;;;;;;4975703;23;20247;-94
2023/12/10 03:19:59;;;;;;;6.30;0.52;;;10.40;99.90;;;;;;4977709;23;20152;-96
2023/12/10 03:22:00;;;;;;;13.50;1.55;;;10.40;99.90;;;;;;5001062;23;20152;-93
2023/12/10 03:24:01;;;;;;;5.60;0.73;;;10.30;99.90;;;;;;4976193;23;20179;-95
2023/12/10 03:26:02;;;;;;;10.93;1.38;;;10.30;99.90;;;;;;4999479;23;20160;-94
2023/12/10 03:28:04;;;;;;;18.50;2.45;;;10.30;99.90;;;;;;4979324;23;20220;-93
2023/12/10 03:30:06;;;;;;;9.02;1.95;;;10.30;99.90;;;;;;4979216;23;20570;-93
2023/12/10 03:32:07;;;;;;;10.32;1.38;;;10.30;99.90;;;;;;4981242;23;20184;-96
2023/12/10 03:34:08;;;;;;;7.75;1.67;;;10.20;99.90;;;;;;4979956;23;20156;-96
2023/12/10 03:36:09;;;;;;;2.67;1.48;;;10.20;99.90;;;;;;4978745;23;20153;-93
2023/12/10 03:38:10;;;;;;;7.72;2.28;;;10.20;99.90;;;;;;4977620;23;20160;-94
2023/12/10 03:40:11;;;;;;;9.35;1.38;;;10.20;99.90;;;;;;5003058;23;20179;-93
2023/12/10 03:42:12;;;;;;;6.15;1.35;;;10.20;99.90;;;;;;5003318;23;20208;-96
2023/12/10 03:44:13;;;;;;;7.35;1.02;;;10.20;99.90;;;;;;4999924;23;20176;-96
2023/12/10 03:46:14;;;;;;;10.02;1.48;;;10.30;99.90;;;;;;4979167;23;20198;-94
2023/12/10 03:48:15;;;;;;;8.38;1.92;;;10.20;99.90;;;;;;5003553;23;20238;-95
2023/12/10 03:50:16;;;;;;;4.85;1.20;;;10.30;99.90;;;;;;5001891;23;20598;-93
2023/12/10 03:52:17;;;;;;;9.45;1.50;;;10.30;99.90;;;;;;4979626;23;20188;-96
2023/12/10 03:54:18;;;;;;;10.38;2.22;;;10.20;99.90;;;;;;5004263;23;20258;-93
2023/12/10 03:56:19;;;;;;;1.30;0.85;;;10.20;99.90;;;;;;5000988;23;20522;-94
2023/12/10 03:58:20;;;;;;;5.03;1.35;;;10.20;99.90;;;;;;4980586;23;20157;-96
2023/12/10 04:00:21;;;;;;;5.93;1.25;;;10.20;99.90;;;;;;4981807;23;20176;-94
2023/12/10 04:02:21;;;;;;;2.35;0.63;;;10.10;99.90;;;;;;4983527;23;20638;-96
2023/12/10 04:04:22;;;;;;;9.27;1.55;;;10.20;99.90;;;;;;5006776;23;20599;-96
2023/12/10 04:06:23;;;;;;;7.38;1.17;;;10.20;99.90;;;;;;4982359;23;20584;-96
2023/12/10 04:08:24;;;;;;;8.80;1.40;;;10.20;99.90;;;;;;4979686;23;20160;-94
2023/12/10 04:10:25;;;;;;;7.00;1.08;;;10.10;99.90;;;;;;4983693;23;20160;-94
2023/12/10 04:12:26;;;;;;;7.90;1.52;;;10.10;99.90;;;;;;4980127;23;20742;-96
2023/12/10 04:14:28;;;;;;;7.25;0.98;;;10.10;99.90;;;;;;5002037;23;20168;-94
2023/12/10 04:16:32;;;;;;;7.75;1.80;;;10.10;99.90;;;;;;4978568;23;20190;-96
2023/12/10 04:18:33;;;;;;;6.10;1.08;;;10.10;99.90;;;;;;4979696;23;20168;-96
2023/12/10 04:20:35;;;;;;;15.07;0.90;;;10.10;99.90;;;;;;5001635;23;20159;-96
2023/12/10 04:22:35;;;;;;;8.30;1.13;;;10.20;99.90;;;;;;4980179;23;20163;-94
2023/12/10 04:24:36;;;;;;;10.52;1.58;;;10.10;99.90;;;;;;4980602;23;20168;-94
2023/12/10 04:26:38;;;;;;;16.67;2.22;;;10.20;99.90;;;;;;5005199;23;20178;-94
2023/12/10 04:28:39;;;;;;;9.63;1.27;;;10.20;99.90;;;;;;4982831;23;20153;-94
2023/12/10 04:30:42;;;;;;;12.10;1.60;;;10.20;99.90;;;;;;5003442;23;20252;-96
2023/12/10 04:32:43;;;;;;;8.25;1.35;;;10.20;99.90;;;;;;4980599;23;20198;-94
2023/12/10 04:34:44;;;;;;;1.20;0.40;;;10.10;99.90;;;;;;5028414;23;20170;-95
2023/12/10 04:36:44;;;;;;;4.88;1.30;;;10.20;99.90;;;;;;4977997;23;20162;-95
2023/12/10 04:38:46;;;;;;;2.45;0.80;;;10.30;99.90;;;;;;4981658;23;20623;-94
2023/12/10 04:40:47;;;;;;;18.75;2.58;;;10.30;99.90;;;;;;4980031;23;20156;-96
2023/12/10 04:42:49;;;;;;;1.95;0.85;;;10.20;99.90;;;;;;4980025;23;20165;-96
2023/12/10 04:44:50;;;;;;;14.38;2.05;;;10.10;99.90;;;;;;5004413;23;20171;-95
2023/12/10 04:46:51;;;;;;;8.73;2.10;;;10.10;99.90;;;;;;4980901;23;20579;-93
2023/12/10 04:48:52;;;;;;;18.42;2.83;;;10.10;99.90;;;;;;4981639;23;20153;-95
2023/12/10 04:50:53;;;;;;;7.10;1.85;;;9.90;99.90;;;;;;5004564;23;20152;-96
2023/12/10 04:52:54;;;;;;;14.63;1.67;;;10.00;99.90;;;;;;4981826;23;20168;-96
2023/12/10 04:54:57;;;;;;;9.10;1.48;;;10.00;99.90;;;;;;5004238;23;20252;-96
2023/12/10 04:56:57;;;;;;;5.85;1.02;;;10.00;99.90;;;;;;4979986;23;20172;-94
2023/12/10 04:58:58;;;;;;;11.73;1.73;;;10.10;99.90;;;;;;5003286;23;20155;-94
2023/12/10 05:00:59;;;;;;;10.23;2.22;;;10.00;99.90;;;;;;4980289;23;20153;-96
2023/12/10 05:03:00;;;;;;;6.93;1.02;;;10.10;99.90;;;;;;4979803;23;20152;-92
2023/12/10 05:05:01;;;;;;;7.20;0.90;;;10.10;99.90;;;;;;5007044;23;20693;-93
2023/12/10 05:07:02;;;;;;;3.22;0.90;;;10.10;99.90;;;;;;4982314;23;20157;-94
2023/12/10 05:09:04;;;;;;;12.75;2.05;;;10.10;99.90;;;;;;4980401;23;20521;-94
2023/12/10 05:11:05;;;;;;;15.95;1.92;;;10.00;99.90;;;;;;4978477;23;20152;-96
2023/12/10 05:13:06;;;;;;;9.85;3.33;;;10.00;99.90;;;;;;5003289;23;20169;-93
2023/12/10 05:15:07;;;;;;;11.63;1.35;;;9.90;99.90;;;;;;4980313;23;20172;-95
2023/12/10 05:17:08;;;;;;;9.23;1.10;;;9.90;99.90;;;;;;4982743;23;20159;-96
2023/12/10 05:19:10;;;;;;;7.38;0.73;;;9.90;99.90;;;;;;5004782;23;20156;-96
2023/12/10 05:21:10;;;;;;;4.28;0.95;;;9.80;99.90;;;;;;4980726;23;20152;-96
2023/12/10 05:23:12;;;;;;;10.82;1.17;;;9.80;99.90;;;;;;4977296;23;20149;-96
2023/12/10 05:25:13;;;;;;;11.65;1.70;;;9.70;99.90;;;;;;5003657;23;20198;-96
2023/12/10 05:27:14;;;;;;;7.70;1.60;;;9.80;99.90;;;;;;5002299;23;20160;-95
2023/12/10 05:29:15;;;;;;;5.53;1.10;;;9.70;99.90;;;;;;4978390;23;20160;-94
2023/12/10 05:31:16;;;;;;;15.18;2.25;;;9.70;99.90;;;;;;4978762;23;20560;-95
2023/12/10 05:33:17;;;;;;;12.95;1.90;;;9.80;99.90;;;;;;4980026;23;20228;-94
2023/12/10 05:35:19;;;;;;;7.18;1.33;;;9.80;99.90;;;;;;5003220;23;20180;-96
2023/12/10 05:37:20;;;;;;;6.38;1.63;;;9.90;99.90;;;;;;5003218;23;20163;-94
2023/12/10 05:39:21;;;;;;;2.40;0.52;;;10.00;99.90;;;;;;5002275;23;20158;-93
2023/12/10 05:41:22;;;;;;;6.53;1.02;;;10.00;99.90;;;;;;4978526;23;20164;-94
2023/12/10 05:43:23;;;;;;;23.25;0.80;;;10.00;99.90;;;;;;4955967;24;20182;-94
2023/12/10 05:45:23;;;;;;;12.27;1.35;;;10.00;99.90;;;;;;4980454;23;20276;-96
2023/12/10 05:47:25;;;;;;;12.48;0.95;;;9.90;99.90;;;;;;5006985;23;20159;-95
2023/12/10 05:49:26;;;;;;;13.50;1.48;;;9.90;99.90;;;;;;4978942;23;20156;-96
2023/12/10 05:51:27;;;;;;;1.73;0.80;;;9.90;99.90;;;;;;5002440;23;20657;-95
2023/12/10 05:53:28;;;;;;;7.07;1.02;;;9.80;99.90;;;;;;5001569;23;20152;-94
2023/12/10 05:55:29;;;;;;;6.90;1.55;;;9.80;99.90;;;;;;5003139;23;20171;-96
2023/12/10 05:57:30;;;;;;;5.65;0.98;;;9.90;99.90;;;;;;4978211;23;20157;-94
2023/12/10 05:59:31;;;;;;;2.75;0.90;;;9.80;99.90;;;;;;4979914;23;20164;-94
2023/12/10 06:01:32;;;;;;;7.72;0.82;;;9.70;99.90;;;;;;5002419;23;20208;-94
2023/12/10 06:03:33;;;;;;;8.52;1.17;;;9.70;99.90;;;;;;4979464;23;20240;-93
2023/12/10 06:05:34;;;;;;;10.73;1.65;;;9.70;99.90;;;;;;4979242;23;20539;-95
2023/12/10 06:07:35;;;;;;;14.90;2.22;;;9.80;99.90;;;;;;4981192;23;20603;-94
2023/12/10 06:09:35;;;;;;;2.47;0.95;;;9.80;99.90;;;;;;4977510;23;20155;-94
2023/12/10 06:11:36;;;;;;;8.88;1.40;;;9.70;99.90;;;;;;4981718;23;20616;-94
2023/12/10 06:13:37;;;;;;;8.35;1.17;;;9.70;99.90;;;;;;5003768;23;20159;-93
2023/12/10 06:15:38;;;;;;;4.22;1.15;;;9.70;99.90;;;;;;5001327;23;20629;-96
2023/12/10 06:17:39;;;;;;;5.38;1.08;;;9.70;99.90;;;;;;5026871;23;20147;-94
2023/12/10 06:19:40;;;;;;;11.38;1.45;;;9.70;99.90;;;;;;4978211;23;20172;-96
2023/12/10 06:21:41;;;;;;;14.23;1.65;;;9.70;99.90;;;;;;5003902;23;20166;-94
2023/12/10 06:23:42;;;;;;;14.02;1.23;;;9.70;99.90;;;;;;5000821;23;20188;-94
2023/12/10 06:25:43;;;;;;;10.48;2.25;;;9.70;99.90;;;;;;4979576;23;20281;-95
2023/12/10 06:27:44;;;;;;;12.43;0.95;;;9.60;99.90;;;;;;4978140;23;20243;-93
2023/12/10 06:29:44;;;;;;;19.65;2.00;;;9.60;99.90;;;;;;4979847;23;20211;-93
2023/12/10 06:31:46;;;;;;;6.78;1.10;;;9.70;99.90;;;;;;4977145;23;20666;-96
2023/12/10 06:33:47;;;;;;;11.10;1.17;;;9.60;99.90;;;;;;4977338;23;20159;-94
2023/12/10 06:35:48;;;;;;;9.88;1.58;;;9.70;99.90;;;;;;4999603;23;20193;-94
2023/12/10 06:37:49;;;;;;;11.00;1.58;;;9.60;99.90;;;;;;4977321;23;20152;-95
2023/12/10 06:39:50;;;;;;;8.27;2.15;;;9.50;99.90;;;;;;4979385;23;20219;-96
2023/12/10 06:41:51;;;;;;;15.40;2.85;;;9.60;99.90;;;;;;5001274;23;20155;-94
2023/12/10 06:43:52;;;;;;;9.13;1.23;;;9.50;99.90;;;;;;5002551;23;20182;-95
2023/12/10 06:45:53;;;;;;;14.70;1.80;;;9.50;99.90;;;;;;4979164;23;20153;-96
2023/12/10 06:47:53;;;;;;;9.43;0.77;;;9.50;99.90;;;;;;4999716;23;20156;-95
2023/12/10 06:49:55;;;;;;;7.72;0.68;;;9.50;99.90;;;;;;4975733;23;20156;-94
2023/12/10 06:51:55;;;;;;;8.02;1.40;;;9.50;99.90;;;;;;4976897;23;20200;-94
2023/12/10 06:53:56;;;;;;;6.72;1.25;;;9.40;99.90;;;;;;4976325;23;20152;-94
2023/12/10 06:55:58;;;;;;;7.07;1.10;;;9.40;99.90;;;;;;4979019;23;20164;-94
2023/12/10 06:57:59;;;;;;;19.20;2.95;;;9.40;99.90;;;;;;4979439;23;20162;-93
2023/12/10 07:00:00;;;;;;;9.20;1.65;;;9.40;99.90;;;;;;4978306;23;20164;-96
2023/12/10 07:02:00;;;;;;;12.98;2.25;;;9.40;99.90;;;;;;4979833;23;20201;-94
2023/12/10 07:04:02;;;;;;;43.90;14.52;;;9.40;99.90;;;;;;5005279;23;20164;-94
2023/12/10 07:06:03;;;;;;;36.92;15.88;;;9.40;99.90;;;;;;4978027;23;20175;-94
2023/12/10 07:08:04;;;;;;;22.92;10.30;;;9.50;99.90;;;;;;4977187;23;20300;-96
2023/12/10 07:10:06;;;;;;;15.93;6.93;;;9.50;99.90;;;;;;5001557;23;20159;-94
2023/12/10 07:12:07;;;;;;;9.02;1.42;;;9.60;99.90;;;;;;5002774;23;20708;-93
2023/12/10 07:14:07;;;;;;;16.85;3.50;;;9.50;99.90;;;;;;4976971;23;20148;-95
2023/12/10 07:16:08;;;;;;;7.47;1.50;;;9.60;99.90;;;;;;5002303;23;20163;-95
2023/12/10 07:18:09;;;;;;;33.85;11.80;;;9.60;99.90;;;;;;4978888;23;20152;-94
2023/12/10 07:20:11;;;;;;;26.33;12.18;;;9.60;99.90;;;;;;4976950;23;20160;-93
2023/12/10 07:22:11;;;;;;;12.75;4.82;;;9.60;99.90;;;;;;4978912;23;20179;-94
2023/12/10 07:24:12;;;;;;;15.65;2.30;;;9.60;99.90;;;;;;4999090;23;20156;-94
2023/12/10 07:26:16;;;;;;;14.77;3.28;;;9.60;99.90;;;;;;4977245;23;20148;-93
2023/12/10 07:28:16;;;;;;;7.55;2.78;;;9.60;99.90;;;;;;5002555;23;20160;-93
2023/12/10 07:30:17;;;;;;;5.57;2.28;;;9.70;99.90;;;;;;4980802;23;20686;-94
2023/12/10 07:32:18;;;;;;;22.33;2.83;;;9.70;99.90;;;;;;4979113;23;20195;-96
2023/12/10 07:34:20;;;;;;;8.10;1.75;;;9.60;99.90;;;;;;4979344;23;20168;-96
2023/12/10 07:36:21;;;;;;;17.13;6.15;;;9.70;99.90;;;;;;4979475;23;20183;-96
2023/12/10 07:38:21;;;;;;;10.75;2.78;;;9.70;99.90;;;;;;5001472;23;20162;-94
2023/12/10 07:40:22;;;;;;;13.75;4.20;;;9.70;99.90;;;;;;4979333;23;20164;-96
2023/12/10 07:42:23;;;;;;;10.38;3.03;;;9.70;99.90;;;;;;4980734;23;20149;-96
2023/12/10 07:44:24;;;;;;;10.90;2.50;;;9.70;99.90;;;;;;5002332;23;20190;-93
2023/12/10 07:46:25;;;;;;;12.85;2.15;;;9.80;99.90;;;;;;4977997;23;20153;-94
2023/12/10 07:48:29;;;;;;;13.95;2.40;;;9.70;99.90;;;;;;4981254;23;20164;-96
2023/12/10 07:50:29;;;;;;;16.35;4.32;;;9.70;99.90;;;;;;4979416;23;20148;-93
2023/12/10 07:52:30;;;;;;;8.60;2.47;;;9.70;99.90;;;;;;4978854;23;20219;-94
2023/12/10 07:54:31;;;;;;;6.07;1.67;;;9.70;99.90;;;;;;4977376;23;20232;-94
2023/12/10 07:56:33;;;;;;;12.93;1.95;;;9.80;99.90;;;;;;5002312;23;20188;-94
2023/12/10 07:58:33;;;;;;;8.50;2.60;;;9.70;99.90;;;;;;4980271;23;20156;-95
2023/12/10 08:00:34;;;;;;;12.35;2.58;;;9.60;99.90;;;;;;4978426;23;20223;-93
2023/12/10 08:02:35;;;;;;;16.35;2.83;;;9.60;99.90;;;;;;4978835;23;20156;-95
2023/12/10 08:04:36;;;;;;;11.18;1.33;;;9.70;99.90;;;;;;4978077;23;20199;-96
2023/12/10 08:06:37;;;;;;;10.77;1.27;;;9.60;99.90;;;;;;4978796;23;20156;-94
2023/12/10 08:08:38;;;;;;;7.10;1.40;;;9.70;99.90;;;;;;5001469;23;20174;-95
2023/12/10 08:10:39;;;;;;;13.98;1.50;;;9.70;99.90;;;;;;5004417;23;20607;-96
2023/12/10 08:12:40;;;;;;;13.13;2.10;;;9.80;99.90;;;;;;4977660;23;20552;-96
2023/12/10 08:14:41;;;;;;;15.18;2.50;;;9.80;99.90;;;;;;5001870;23;20168;-96
2023/12/10 08:16:42;;;;;;;8.00;2.20;;;9.80;99.90;;;;;;4979281;23;20188;-94
2023/12/10 08:18:42;;;;;;;8.60;1.35;;;9.80;99.90;;;;;;4976481;23;20164;-96
2023/12/10 08:20:43;;;;;;;8.43;1.10;;;9.80;99.90;;;;;;4978704;23;20160;-95
2023/12/10 08:22:44;;;;;;;11.15;2.30;;;9.90;99.90;;;;;;5001553;23;20240;-93
2023/12/10 08:24:45;;;;;;;8.13;1.50;;;9.90;99.90;;;;;;4978675;23;20190;-95
2023/12/10 08:26:46;;;;;;;13.40;1.83;;;10.00;99.90;;;;;;5001109;23;20148;-94
2023/12/10 08:28:47;;;;;;;12.23;2.67;;;10.20;99.90;;;;;;4977262;23;20163;-93
2023/12/10 08:30:48;;;;;;;4.20;1.63;;;10.10;99.90;;;;;;5002634;23;20166;-95
2023/12/10 08:32:50;;;;;;;9.20;1.45;;;10.20;99.90;;;;;;4979544;23;20910;-96
2023/12/10 08:34:51;;;;;;;15.48;2.33;;;10.20;99.90;;;;;;4977067;23;20259;-96
2023/12/10 08:36:52;;;;;;;14.18;1.65;;;10.30;99.90;;;;;;5001966;23;20216;-96
2023/12/10 08:38:53;;;;;;;18.27;3.33;;;10.40;99.90;;;;;;4978019;23;20624;-93
2023/12/10 08:40:55;;;;;;;11.90;3.10;;;10.50;99.90;;;;;;5004492;23;20165;-96
2023/12/10 08:42:56;;;;;;;12.85;2.30;;;10.50;99.90;;;;;;4981097;23;20180;-96
2023/12/10 08:44:58;;;;;;;7.40;1.40;;;10.60;99.90;;;;;;5003624;23;20172;-95
2023/12/10 08:46:59;;;;;;;7.57;1.52;;;10.60;99.90;;;;;;4979583;23;20152;-95
2023/12/10 08:49:00;;;;;;;12.82;1.95;;;10.50;99.90;;;;;;4980712;23;20159;-96
2023/12/10 08:51:00;;;;;;;17.27;2.03;;;10.60;99.90;;;;;;4979343;23;20156;-96
2023/12/10 08:53:01;;;;;;;9.40;1.80;;;10.50;99.90;;;;;;4978382;23;20176;-96
2023/12/10 08:55:02;;;;;;;5.38;1.45;;;10.50;99.90;;;;;;4978464;23;20249;-95
2023/12/10 08:57:03;;;;;;;15.88;2.95;;;10.50;99.90;;;;;;4981485;23;20231;-96
2023/12/10 08:59:05;;;;;;;13.93;2.65;;;10.50;99.90;;;;;;5001989;23;20156;-94
2023/12/10 09:01:06;;;;;;;10.85;1.45;;;10.40;99.90;;;;;;4980301;23;20239;-94
2023/12/10 09:03:07;;;;;;;5.63;1.48;;;10.40;99.90;;;;;;4980677;23;20508;-93
2023/12/10 09:05:09;;;;;;;11.32;1.77;;;10.40;99.90;;;;;;5003487;23;20227;-93
2023/12/10 09:07:09;;;;;;;4.93;1.23;;;10.50;99.90;;;;;;4981246;23;20156;-94
2023/12/10 09:09:10;;;;;;;20.25;1.83;;;10.40;99.90;;;;;;4976724;23;20165;-95
2023/12/10 09:11:11;;;;;;;22.70;2.63;;;10.20;99.90;;;;;;5003687;23;20183;-93
2023/12/10 09:13:12;;;;;;;22.05;1.92;;;10.20;99.90;;;;;;4978850;23;20180;-96
2023/12/10 09:15:13;;;;;;;16.50;2.10;;;10.20;99.90;;;;;;4980312;23;20173;-95
2023/12/10 09:17:14;;;;;;;14.20;1.83;;;10.30;99.90;;;;;;4979899;23;20173;-93
2023/12/10 09:19:17;;;;;;;17.17;2.72;;;10.60;99.90;;;;;;5002242;23;20249;-93
2023/12/10 09:21:17;;;;;;;16.25;2.03;;;10.80;99.90;;;;;;5000503;23;20156;-93
2023/12/10 09:23:18;;;;;;;17.13;2.40;;;10.90;99.90;;;;;;4978251;23;20615;-93
2023/12/10 09:25:19;;;;;;;13.45;1.77;;;11.00;99.90;;;;;;4976755;23;20208;-93
2023/12/10 09:27:20;;;;;;;26.38;3.20;;;11.20;99.90;;;;;;4977966;23;20200;-96
2023/12/10 09:29:21;;;;;;;9.80;1.73;;;11.10;99.90;;;;;;4977897;23;20626;-94
2023/12/10 09:31:22;;;;;;;11.40;1.45;;;10.80;99.90;;;;;;4979136;23;20639;-96
2023/12/10 09:33:23;;;;;;;12.10;1.80;;;10.80;99.90;;;;;;5001689;23;20171;-94
2023/12/10 09:35:23;;;;;;;15.80;1.75;;;10.80;99.90;;;;;;5000040;23;20254;-92
2023/12/10 09:37:24;;;;;;;8.82;1.73;;;10.80;99.90;;;;;;4977151;23;20160;-92
2023/12/10 09:39:26;;;;;;;8.20;1.83;;;10.70;99.90;;;;;;4976959;23;20148;-93
2023/12/10 09:41:27;;;;;;;16.05;1.98;;;10.70;99.90;;;;;;4976395;23;20164;-95
2023/12/10 09:43:28;;;;;;;10.25;1.73;;;10.70;99.90;;;;;;4975973;23;20160;-93
2023/12/10 09:45:29;;;;;;;10.95;2.50;;;10.70;99.90;;;;;;4999250;23;20187;-93
2023/12/10 09:47:29;;;;;;;17.80;2.45;;;10.80;99.90;;;;;;4975876;23;20157;-94
2023/12/10 09:49:33;;;;;;;7.95;2.13;;;10.80;99.90;;;;;;5001059;23;20163;-95
2023/12/10 09:51:34;;;;;;;13.98;2.20;;;10.70;99.90;;;;;;4976232;23;20215;-93
2023/12/10 09:53:34;;;;;;;11.65;2.05;;;10.70;99.90;;;;;;4976406;23;20182;-93
2023/12/10 09:55:35;;;;;;;17.40;2.40;;;10.80;99.90;;;;;;4999866;23;20233;-96
2023/12/10 09:57:36;;;;;;;6.70;2.22;;;10.90;99.90;;;;;;4975975;23;20592;-92
2023/12/10 09:59:37;;;;;;;9.25;1.88;;;11.00;99.90;;;;;;4975046;23;20156;-96
2023/12/10 10:01:38;;;;;;;15.73;2.95;;;11.20;99.90;;;;;;4976191;23;20157;-92
2023/12/10 10:03:41;;;;;;;12.93;2.22;;;11.30;99.90;;;;;;4999294;23;20152;-95
2023/12/10 10:05:41;;;;;;;11.65;1.85;;;11.30;99.90;;;;;;4975372;23;20172;-94
2023/12/10 10:07:42;;;;;;;9.65;2.38;;;11.10;99.90;;;;;;4976640;23;20164;-92
2023/12/10 10:09:44;;;;;;;16.50;3.00;;;11.00;99.90;;;;;;4975548;23;20616;-94
2023/12/10 10:11:50;;;;;;;6.00;0.98;;;11.00;99.90;;;;;;5000212;23;20187;-92
2023/12/10 10:13:52;;;;;;;11.05;2.50;;;11.00;99.90;;;;;;4976127;23;20153;-95
2023/12/10 10:15:53;;;;;;;15.68;2.17;;;11.00;99.90;;;;;;4977599;23;20604;-93
2023/12/10 10:17:56;;;;;;;21.75;3.22;;;10.90;99.90;;;;;;4976677;23;20160;-95
2023/12/10 10:19:57;;;;;;;14.38;1.95;;;11.00;99.90;;;;;;4976803;23;20167;-93
2023/12/10 10:21:58;;;;;;;24.92;2.63;;;10.90;99.90;;;;;;5001903;23;20482;-95
2023/12/10 10:23:59;;;;;;;10.40;1.55;;;10.70;99.90;;;;;;4976241;23;20163;-91
2023/12/10 10:26:00;;;;;;;10.57;2.50;;;10.80;99.90;;;;;;4978542;23;20166;-93
2023/12/10 10:28:02;;;;;;;14.52;2.28;;;10.70;99.90;;;;;;4976145;23;20156;-92
2023/12/10 10:30:04;;;;;;;7.55;0.75;;;10.80;99.90;;;;;;4976482;23;20599;-94